Time;durP1;ratioP1;P1;durP2;ratioP2;P2;SDS_P1;SDS_P2;PMS_P1;PMS_P2;Temp;Humidity;BMP_temperature;BMP_pressure;BME280_temperature;BME280_humidity;BME280_pressure;Samples;Min_cycle;Max_cycle;Signal;HPM_P1;HPM_P2
2021/04/20 00:00:14;;;;;;;2.10;1.60;;;23.50;35.30;;;;;;5051536;28;20396;-58
2021/04/20 00:02:40;;;;;;;2.33;1.80;;;23.50;35.10;;;;;;5051696;28;20489;-58
2021/04/20 00:05:10;;;;;;;2.47;1.70;;;23.50;35.10;;;;;;5051696;28;20393;-67
2021/04/20 00:07:36;;;;;;;1.92;1.50;;;23.50;35.20;;;;;;5050764;28;20423;-66
2021/04/20 00:10:06;;;;;;;2.50;1.70;;;23.50;35.20;;;;;;5051459;28;20476;-66
2021/04/20 00:12:32;;;;;;;2.78;1.77;;;23.40;35.30;;;;;;5051461;28;20474;-67
2021/04/20 00:14:58;;;;;;;2.50;1.80;;;23.40;35.30;;;;;;5051465;28;20443;-67
2021/04/20 00:17:24;;;;;;;2.47;1.70;;;23.40;35.30;;;;;;5051293;28;20889;-66
2021/04/20 00:19:49;;;;;;;2.33;1.70;;;23.40;35.30;;;;;;5051409;28;20399;-65
2021/04/20 00:22:15;;;;;;;2.10;1.60;;;23.40;35.30;;;;;;5050895;28;20388;-66
2021/04/20 00:24:40;;;;;;;1.60;1.30;;;23.40;35.40;;;;;;5051275;28;20419;-67
2021/04/20 00:27:06;;;;;;;2.40;1.70;;;23.30;35.30;;;;;;5051363;28;20385;-62
2021/04/20 00:29:32;;;;;;;2.28;1.60;;;23.30;35.30;;;;;;5051473;28;20455;-67
2021/04/20 00:31:58;;;;;;;2.20;1.60;;;23.30;35.30;;;;;;5051095;28;20866;-67
2021/04/20 00:34:23;;;;;;;1.80;1.40;;;23.30;35.20;;;;;;5050192;28;20393;-67
2021/04/20 00:36:49;;;;;;;2.10;1.60;;;23.30;35.30;;;;;;5051026;28;20509;-67
2021/04/20 00:39:14;;;;;;;2.20;1.50;;;23.30;35.30;;;;;;5051215;28;20385;-66
2021/04/20 00:41:40;;;;;;;2.22;1.58;;;23.30;35.30;;;;;;5051167;28;20489;-67
2021/04/20 00:44:06;;;;;;;1.70;1.45;;;23.20;35.20;;;;;;5051083;28;20954;-65
2021/04/20 00:46:31;;;;;;;2.00;1.40;;;23.20;35.20;;;;;;5050390;28;20504;-66
2021/04/20 00:48:57;;;;;;;1.90;1.40;;;23.20;35.00;;;;;;5051225;28;20789;-66
2021/04/20 00:51:23;;;;;;;2.22;1.40;;;23.30;35.10;;;;;;5051028;28;20390;-66
2021/04/20 00:53:49;;;;;;;1.67;1.30;;;23.30;35.10;;;;;;5051082;28;20393;-66
2021/04/20 00:56:18;;;;;;;1.67;1.30;;;23.20;35.00;;;;;;5050957;28;20394;-64
2021/04/20 00:58:45;;;;;;;1.80;1.30;;;23.20;34.80;;;;;;5055020;28;20389;-66
2021/04/20 01:01:11;;;;;;;1.80;1.42;;;23.20;34.80;;;;;;5054951;28;20789;-67
2021/04/20 01:03:37;;;;;;;2.03;1.40;;;23.20;34.80;;;;;;5054335;28;20409;-66
2021/04/20 01:06:03;;;;;;;1.90;1.30;;;23.20;35.00;;;;;;5054763;28;20468;-67
2021/04/20 01:08:30;;;;;;;1.52;1.17;;;23.20;35.00;;;;;;5054174;28;20451;-67
2021/04/20 01:10:58;;;;;;;1.80;1.27;;;23.10;34.90;;;;;;5054765;28;20476;-67
2021/04/20 01:13:30;;;;;;;1.58;1.20;;;23.20;35.00;;;;;;5053448;28;20397;-67
2021/04/20 01:15:56;;;;;;;1.65;1.33;;;23.10;34.90;;;;;;5053423;28;20448;-67
2021/04/20 01:18:24;;;;;;;1.58;1.23;;;23.10;34.90;;;;;;5054108;28;20405;-67
2021/04/20 01:20:53;;;;;;;2.35;1.30;;;23.10;34.80;;;;;;5054544;28;20386;-66
2021/04/20 01:23:49;;;;;;;1.47;1.17;;;23.10;34.60;;;;;;5054450;28;20939;-66
2021/04/20 01:26:17;;;;;;;1.67;1.20;;;23.10;34.60;;;;;;5054184;28;20412;-67
2021/04/20 01:28:43;;;;;;;2.00;1.20;;;23.10;34.60;;;;;;5054599;28;20861;-66
2021/04/20 01:31:10;;;;;;;1.60;1.17;;;23.10;34.60;;;;;;5054492;28;20396;-66
2021/04/20 01:33:35;;;;;;;1.90;1.30;;;23.10;34.60;;;;;;5054345;28;20405;-66
2021/04/20 01:36:03;;;;;;;1.60;1.20;;;23.00;34.50;;;;;;5054292;28;20398;-66
2021/04/20 01:38:30;;;;;;;1.70;1.20;;;23.10;34.50;;;;;;5053812;28;20420;-68
2021/04/20 01:40:56;;;;;;;1.35;1.02;;;23.10;34.50;;;;;;5054347;28;20377;-67
2021/04/20 01:43:22;;;;;;;1.50;1.10;;;23.10;34.40;;;;;;5054099;28;20493;-65
2021/04/20 01:45:48;;;;;;;1.50;1.10;;;23.10;34.40;;;;;;5053969;28;20473;-67
2021/04/20 01:48:14;;;;;;;1.58;1.20;;;23.10;34.40;;;;;;5053970;28;20861;-64
2021/04/20 01:50:41;;;;;;;1.42;1.13;;;23.00;34.30;;;;;;5053504;28;20424;-65
2021/04/20 01:53:07;;;;;;;1.77;1.20;;;23.10;34.40;;;;;;5053696;28;20385;-66
2021/04/20 01:55:33;;;;;;;1.50;1.02;;;23.10;34.30;;;;;;5054132;28;20453;-67
2021/04/20 01:58:00;;;;;;;1.58;1.25;;;23.10;34.20;;;;;;5053913;28;20930;-66
2021/04/20 02:00:26;;;;;;;1.40;1.00;;;23.00;34.20;;;;;;5053477;28;20893;-69
2021/04/20 02:02:52;;;;;;;2.03;1.15;;;23.00;34.20;;;;;;5052064;28;20409;-66
2021/04/20 02:05:20;;;;;;;1.50;1.23;;;23.00;34.20;;;;;;5053387;28;20397;-67
2021/04/20 02:07:46;;;;;;;2.80;1.20;;;23.00;34.10;;;;;;5053048;28;20471;-67
2021/04/20 02:10:13;;;;;;;1.85;1.20;;;23.00;34.20;;;;;;5053407;28;20429;-66
2021/04/20 02:12:43;;;;;;;1.40;1.00;;;23.00;34.10;;;;;;5053424;28;20404;-67
2021/04/20 02:15:12;;;;;;;1.30;1.00;;;23.00;34.10;;;;;;5053596;28;20726;-66
2021/04/20 02:17:42;;;;;;;1.30;1.10;;;22.90;34.10;;;;;;5053725;28;20432;-66
2021/04/20 02:20:11;;;;;;;2.30;1.27;;;22.90;34.10;;;;;;5053572;28;20396;-67
2021/04/20 02:22:39;;;;;;;1.50;1.00;;;22.90;34.10;;;;;;5052973;28;20377;-66
2021/04/20 02:25:06;;;;;;;1.58;1.10;;;22.90;34.10;;;;;;5053518;28;20417;-66
2021/04/20 02:27:35;;;;;;;1.45;1.10;;;22.90;34.10;;;;;;5053405;28;20388;-66
2021/04/20 02:30:01;;;;;;;1.30;1.00;;;22.90;34.10;;;;;;5053476;28;20389;-66
2021/04/20 02:32:27;;;;;;;1.60;0.95;;;22.90;34.10;;;;;;5052827;28;20385;-67
2021/04/20 02:34:53;;;;;;;1.40;1.00;;;22.90;34.10;;;;;;5053276;28;20444;-67
2021/04/20 02:37:19;;;;;;;1.70;1.00;;;22.90;34.00;;;;;;5053157;28;20803;-67
2021/04/20 02:39:47;;;;;;;1.23;0.80;;;22.90;34.00;;;;;;5053280;28;20381;-65
2021/04/20 02:42:13;;;;;;;1.48;0.80;;;22.80;34.00;;;;;;5053049;28;20949;-65
2021/04/20 02:44:39;;;;;;;1.37;0.80;;;22.90;34.00;;;;;;5052560;28;20500;-67
2021/04/20 02:47:05;;;;;;;1.20;0.90;;;22.90;34.00;;;;;;5052929;28;20413;-67
2021/04/20 02:49:31;;;;;;;1.73;0.80;;;22.80;33.90;;;;;;5053016;28;20389;-66
2021/04/20 02:51:57;;;;;;;1.40;0.95;;;22.80;33.90;;;;;;5052950;28;20737;-67
2021/04/20 02:54:23;;;;;;;1.30;0.95;;;22.90;34.00;;;;;;5052394;28;20480;-65
2021/04/20 02:56:49;;;;;;;1.52;0.95;;;22.90;33.90;;;;;;5053083;28;20393;-67
2021/04/20 02:59:15;;;;;;;1.30;1.00;;;22.80;33.80;;;;;;5052778;28;20437;-67
2021/04/20 03:01:42;;;;;;;1.10;0.80;;;22.80;33.80;;;;;;5052835;28;20420;-67
2021/04/20 03:04:13;;;;;;;1.25;0.82;;;22.90;33.80;;;;;;5052655;28;20917;-67
2021/04/20 03:06:41;;;;;;;1.20;0.87;;;22.80;33.70;;;;;;5052019;28;20460;-65
2021/04/20 03:09:07;;;;;;;1.20;0.70;;;22.80;33.70;;;;;;5051987;28;20390;-66
2021/04/20 03:11:54;;;;;;;1.30;0.80;;;22.80;33.80;;;;;;5052480;28;20403;-66
2021/04/20 03:14:20;;;;;;;1.15;0.80;;;22.80;33.80;;;;;;5052273;28;20386;-66
2021/04/20 03:16:46;;;;;;;1.30;0.82;;;22.80;33.70;;;;;;5052477;28;20428;-66
2021/04/20 03:19:12;;;;;;;1.70;0.90;;;22.80;33.80;;;;;;5052136;28;20436;-67
2021/04/20 03:21:40;;;;;;;1.20;0.80;;;22.80;33.70;;;;;;5052090;28;20486;-67
2021/04/20 03:24:06;;;;;;;1.20;0.80;;;22.70;33.70;;;;;;5052416;28;20906;-66
2021/04/20 03:26:41;;;;;;;1.45;0.95;;;22.70;33.70;;;;;;5051530;28;20861;-67
2021/04/20 03:29:09;;;;;;;1.10;0.80;;;22.70;33.70;;;;;;5052105;28;20398;-65
2021/04/20 03:31:40;;;;;;;1.10;0.75;;;22.70;33.70;;;;;;5052191;28;20410;-66
2021/04/20 03:34:16;;;;;;;1.55;0.75;;;22.70;33.70;;;;;;5052234;28;20428;-66
2021/04/20 03:36:50;;;;;;;1.00;0.75;;;22.70;33.70;;;;;;5051655;28;20386;-67
2021/04/20 03:39:21;;;;;;;1.20;0.90;;;22.70;33.60;;;;;;5052102;28;20881;-66
2021/04/20 03:42:04;;;;;;;1.20;0.80;;;22.70;33.70;;;;;;5052087;28;20385;-66
2021/04/20 03:44:38;;;;;;;1.35;0.80;;;22.70;33.60;;;;;;5051450;28;20409;-67
2021/04/20 03:47:08;;;;;;;1.38;0.80;;;22.70;33.60;;;;;;5051849;28;20402;-66
2021/04/20 03:49:37;;;;;;;0.95;0.65;;;22.70;33.60;;;;;;5051843;28;20451;-66
2021/04/20 03:52:11;;;;;;;0.98;0.70;;;22.70;33.60;;;;;;5051800;28;20881;-66
2021/04/20 03:54:41;;;;;;;1.10;0.77;;;22.70;33.60;;;;;;5051356;28;20454;-66
2021/04/20 03:57:08;;;;;;;1.00;0.70;;;22.70;33.60;;;;;;5051659;28;20386;-66
2021/04/20 03:59:36;;;;;;;0.93;0.60;;;22.70;33.60;;;;;;5051339;28;20398;-66
2021/04/20 04:02:03;;;;;;;1.00;0.70;;;22.70;33.60;;;;;;5051633;28;20390;-66
2021/04/20 04:04:29;;;;;;;1.35;0.70;;;22.70;33.60;;;;;;5051108;28;20909;-66
2021/04/20 04:06:56;;;;;;;1.00;0.63;;;22.70;33.60;;;;;;5051479;28;20385;-66
2021/04/20 04:09:22;;;;;;;1.20;0.70;;;22.70;33.60;;;;;;5033707;28;20401;-65
2021/04/20 04:11:53;;;;;;;1.23;0.70;;;22.70;33.80;;;;;;5050975;28;20386;-67
2021/04/20 04:14:22;;;;;;;1.02;0.68;;;22.70;34.10;;;;;;5050365;28;20382;-66
2021/04/20 04:16:49;;;;;;;1.60;0.70;;;22.80;34.30;;;;;;5051043;28;20393;-66
2021/04/20 04:19:18;;;;;;;1.73;0.68;;;22.80;35.10;;;;;;5051173;28;20385;-67
2021/04/20 04:21:47;;;;;;;1.55;0.70;;;22.90;35.10;;;;;;5051212;28;20897;-63
2021/04/20 04:24:18;;;;;;;2.40;0.60;;;22.90;35.50;;;;;;5051152;28;20443;-66
2021/04/20 04:26:56;;;;;;;2.13;0.70;;;22.90;35.40;;;;;;5050712;28;20404;-63
2021/04/20 04:29:25;;;;;;;2.10;0.65;;;22.90;35.10;;;;;;5051013;28;20385;-65
2021/04/20 04:31:52;;;;;;;1.50;0.60;;;22.90;35.40;;;;;;5048679;28;20415;-61
2021/04/20 04:34:18;;;;;;;1.17;0.68;;;22.90;35.20;;;;;;5057709;28;20401;-67
2021/04/20 04:36:45;;;;;;;2.03;0.60;;;22.90;35.60;;;;;;5056438;28;20385;-66
2021/04/20 04:39:17;;;;;;;1.20;0.70;;;22.90;35.40;;;;;;5057600;28;20462;-61
2021/04/20 04:41:44;;;;;;;1.60;0.70;;;23.00;35.40;;;;;;5057623;28;20385;-66
2021/04/20 04:44:10;;;;;;;1.10;0.68;;;23.00;35.40;;;;;;5057793;28;20482;-64
2021/04/20 04:46:37;;;;;;;1.95;0.65;;;23.00;35.40;;;;;;5056707;28;20389;-65
2021/04/20 04:49:03;;;;;;;1.20;0.60;;;23.00;35.40;;;;;;5058233;28;20412;-65
2021/04/20 04:51:30;;;;;;;2.23;0.70;;;22.90;35.10;;;;;;5057670;28;20860;-65
2021/04/20 04:53:57;;;;;;;2.53;0.63;;;22.90;35.40;;;;;;5057878;28;20385;-59
2021/04/20 04:56:24;;;;;;;3.38;0.60;;;22.90;35.00;;;;;;5057411;28;20381;-58
2021/04/20 04:58:53;;;;;;;3.88;0.80;;;22.90;34.90;;;;;;5057314;28;20492;-58
2021/04/20 05:01:19;;;;;;;4.32;0.75;;;22.90;35.60;;;;;;5056699;28;20384;-58
2021/04/20 05:03:45;;;;;;;2.17;0.80;;;22.90;36.20;;;;;;5057517;28;20503;-58
2021/04/20 05:06:16;;;;;;;3.20;0.60;;;23.00;35.50;;;;;;5056646;28;20822;-58
2021/04/20 05:08:41;;;;;;;3.53;0.52;;;23.00;35.70;;;;;;5055352;28;20424;-58
2021/04/20 05:11:07;;;;;;;2.63;0.80;;;23.00;35.40;;;;;;5057460;28;20824;-58
2021/04/20 05:13:34;;;;;;;1.20;0.63;;;23.00;35.20;;;;;;5057358;28;20386;-59
2021/04/20 05:16:07;;;;;;;2.80;0.67;;;23.00;35.10;;;;;;5057319;28;20381;-58
2021/04/20 05:18:35;;;;;;;4.25;0.90;;;23.00;34.70;;;;;;5056948;28;20393;-58
2021/04/20 05:21:01;;;;;;;4.70;0.77;;;22.90;35.20;;;;;;5056017;28;20385;-58
2021/04/20 05:23:26;;;;;;;13.70;1.20;;;22.90;35.00;;;;;;5057130;28;20424;-58
2021/04/20 05:25:53;;;;;;;4.47;0.97;;;22.80;35.80;;;;;;5057713;28;20424;-58
2021/04/20 05:28:20;;;;;;;3.60;0.80;;;22.90;35.60;;;;;;5057412;28;20405;-58
2021/04/20 05:30:46;;;;;;;2.90;0.67;;;22.90;35.50;;;;;;5056876;28;20400;-58
2021/04/20 05:33:15;;;;;;;2.55;0.70;;;22.90;35.30;;;;;;5057633;28;20419;-57
2021/04/20 05:35:44;;;;;;;3.05;0.65;;;22.90;35.40;;;;;;5057494;28;20393;-58
2021/04/20 05:38:10;;;;;;;3.00;0.75;;;22.90;35.40;;;;;;5057401;28;20436;-58
2021/04/20 05:40:41;;;;;;;1.90;0.57;;;23.00;35.30;;;;;;5055616;28;21237;-58
2021/04/20 05:43:07;;;;;;;4.13;0.80;;;22.90;35.00;;;;;;5055773;28;20405;-58
2021/04/20 05:45:33;;;;;;;2.85;0.80;;;22.80;34.80;;;;;;5054288;28;20466;-59
2021/04/20 05:48:01;;;;;;;2.80;0.60;;;22.80;34.60;;;;;;5054083;28;20925;-59
2021/04/20 05:50:28;;;;;;;2.90;0.80;;;22.80;34.50;;;;;;5051393;28;20902;-59
2021/04/20 05:52:56;;;;;;;3.10;0.73;;;22.80;34.50;;;;;;5050995;28;20386;-58
2021/04/20 05:55:21;;;;;;;2.65;0.55;;;22.70;34.50;;;;;;5054062;28;20469;-59
2021/04/20 05:57:50;;;;;;;2.53;0.63;;;22.70;34.30;;;;;;5047573;28;20553;-58
2021/04/20 06:00:17;;;;;;;3.00;0.63;;;22.70;34.20;;;;;;5051040;28;20394;-61
2021/04/20 06:02:45;;;;;;;2.45;0.60;;;22.70;34.20;;;;;;5050346;28;20382;-58
2021/04/20 06:05:13;;;;;;;3.05;0.65;;;22.70;34.20;;;;;;5053308;28;20866;-58
2021/04/20 06:07:52;;;;;;;2.53;0.60;;;22.70;34.20;;;;;;5053157;28;20410;-58
2021/04/20 06:10:18;;;;;;;2.35;0.60;;;22.70;34.10;;;;;;5053126;28;20869;-59
2021/04/20 06:12:45;;;;;;;3.30;0.80;;;22.70;34.10;;;;;;5052864;28;20397;-58
2021/04/20 06:15:13;;;;;;;1.70;0.60;;;22.70;34.10;;;;;;5053319;28;20448;-59
2021/04/20 06:17:40;;;;;;;1.10;0.50;;;22.70;34.00;;;;;;5053177;28;20757;-58
2021/04/20 06:20:08;;;;;;;1.30;0.60;;;22.70;33.90;;;;;;5053159;28;20382;-59
2021/04/20 06:22:35;;;;;;;2.50;0.60;;;22.70;33.90;;;;;;5052539;28;20444;-59
2021/04/20 06:25:01;;;;;;;1.00;0.50;;;22.70;33.90;;;;;;5052814;28;20893;-58
2021/04/20 06:27:28;;;;;;;1.17;0.63;;;22.70;33.80;;;;;;5051978;28;20479;-58
2021/04/20 06:29:54;;;;;;;0.95;0.55;;;22.70;33.70;;;;;;5052334;28;20397;-59
2021/04/20 06:32:20;;;;;;;1.70;0.60;;;22.70;33.70;;;;;;5053333;28;20370;-59
2021/04/20 06:34:46;;;;;;;2.28;0.70;;;22.70;33.70;;;;;;5052946;28;20468;-60
2021/04/20 06:37:12;;;;;;;1.33;0.70;;;22.70;33.60;;;;;;5053233;28;20880;-59
2021/04/20 06:39:39;;;;;;;2.00;0.68;;;22.70;33.60;;;;;;5053362;28;20397;-58
2021/04/20 06:42:10;;;;;;;1.30;0.70;;;22.70;33.60;;;;;;5053250;28;20385;-59
2021/04/20 06:45:07;;;;;;;1.70;0.73;;;22.60;33.50;;;;;;5052858;28;20413;-59
2021/04/20 06:47:48;;;;;;;1.83;0.60;;;22.60;33.50;;;;;;5050866;28;20420;-58
2021/04/20 06:50:16;;;;;;;0.93;0.60;;;22.60;33.50;;;;;;5052972;28;20385;-59
2021/04/20 06:52:57;;;;;;;1.70;0.70;;;22.60;33.40;;;;;;5052497;28;20385;-59
2021/04/20 06:55:33;;;;;;;1.90;0.70;;;22.60;33.40;;;;;;5052440;28;20381;-59
2021/04/20 06:58:18;;;;;;;1.08;0.60;;;22.60;33.40;;;;;;5052927;28;20404;-58
2021/04/20 07:01:01;;;;;;;1.27;0.50;;;22.60;33.40;;;;;;5052387;28;20931;-58
2021/04/20 07:03:35;;;;;;;1.70;0.60;;;22.60;33.40;;;;;;5052617;28;20413;-58
2021/04/20 07:06:21;;;;;;;1.80;0.70;;;22.60;33.40;;;;;;5052714;28;20394;-59
2021/04/20 07:09:02;;;;;;;1.15;0.60;;;22.60;33.40;;;;;;5051055;28;20373;-58
2021/04/20 07:11:32;;;;;;;1.38;0.70;;;22.60;33.40;;;;;;5052571;28;20389;-58
2021/04/20 07:14:01;;;;;;;1.25;0.60;;;22.60;33.40;;;;;;5052656;28;20381;-58
2021/04/20 07:16:33;;;;;;;2.85;0.70;;;22.60;33.40;;;;;;5051197;28;20879;-58
2021/04/20 07:19:36;;;;;;;1.58;0.70;;;22.60;33.40;;;;;;5052220;28;20389;-58
2021/04/20 07:22:18;;;;;;;1.00;0.60;;;22.50;33.30;;;;;;5052409;28;20392;-59
2021/04/20 07:25:25;;;;;;;1.17;0.57;;;22.50;33.30;;;;;;5051776;28;20969;-58
2021/04/20 07:27:56;;;;;;;1.20;0.60;;;22.60;33.30;;;;;;5025736;28;20885;-59
2021/04/20 07:30:49;;;;;;;3.53;0.77;;;22.50;33.30;;;;;;5052203;28;20476;-58
2021/04/20 07:33:14;;;;;;;1.35;0.80;;;22.60;33.40;;;;;;5052149;28;20797;-58
2021/04/20 07:36:09;;;;;;;1.85;0.70;;;22.60;33.60;;;;;;5052145;28;20417;-66
2021/04/20 07:38:59;;;;;;;1.58;0.80;;;22.50;33.70;;;;;;5052021;28;20496;-63
2021/04/20 07:41:41;;;;;;;1.20;0.60;;;22.40;33.70;;;;;;5051977;28;20409;-64
2021/04/20 07:44:24;;;;;;;3.60;0.80;;;22.40;33.60;;;;;;5051994;28;20417;-61
2021/04/20 07:46:53;;;;;;;2.80;0.70;;;22.50;33.60;;;;;;5051365;28;20917;-67
2021/04/20 07:49:32;;;;;;;2.10;0.60;;;22.50;33.50;;;;;;5051819;28;20385;-58
2021/04/20 07:52:07;;;;;;;1.90;0.68;;;22.50;33.50;;;;;;5051890;28;20746;-58
2021/04/20 07:54:54;;;;;;;1.10;0.50;;;22.50;33.50;;;;;;5051438;28;20428;-58
2021/04/20 07:57:36;;;;;;;1.80;0.80;;;22.50;33.40;;;;;;5051650;28;20728;-58
2021/04/20 08:00:17;;;;;;;1.17;0.60;;;22.50;33.40;;;;;;5051719;28;20398;-58
2021/04/20 08:03:24;;;;;;;2.60;0.50;;;22.40;33.30;;;;;;5051133;28;20381;-58
2021/04/20 08:06:03;;;;;;;1.00;0.60;;;22.40;33.30;;;;;;5051132;28;20393;-58
2021/04/20 08:08:47;;;;;;;1.45;0.70;;;22.50;33.40;;;;;;5051606;28;20381;-58
2021/04/20 08:11:24;;;;;;;1.70;0.60;;;22.50;33.30;;;;;;5051499;28;20472;-58
2021/04/20 08:14:02;;;;;;;1.87;0.80;;;22.50;33.30;;;;;;5051827;28;20401;-58
2021/04/20 08:16:30;;;;;;;1.65;0.70;;;22.50;33.20;;;;;;5051520;28;20409;-58
2021/04/20 08:19:22;;;;;;;2.10;0.50;;;22.50;33.20;;;;;;5050961;28;20385;-57
2021/04/20 08:21:50;;;;;;;1.40;0.57;;;22.50;33.20;;;;;;5059125;28;20394;-57
2021/04/20 08:24:41;;;;;;;1.40;0.60;;;22.50;33.20;;;;;;5049712;28;20758;-58
2021/04/20 08:27:16;;;;;;;2.00;0.60;;;22.50;33.10;;;;;;5051021;28;20868;-57
2021/04/20 08:29:46;;;;;;;1.30;0.57;;;22.50;33.20;;;;;;5051345;28;20462;-57
2021/04/20 08:32:25;;;;;;;1.15;0.60;;;22.50;33.10;;;;;;5051345;28;20393;-58
2021/04/20 08:35:19;;;;;;;1.30;0.60;;;22.50;33.20;;;;;;5050947;28;20432;-57
2021/04/20 08:37:57;;;;;;;1.50;0.80;;;22.50;33.10;;;;;;5051228;28;20420;-58
2021/04/20 08:40:46;;;;;;;1.30;0.67;;;22.40;33.10;;;;;;5051252;28;20400;-58
2021/04/20 08:43:41;;;;;;;0.93;0.50;;;22.50;33.10;;;;;;5050708;28;20424;-57
2021/04/20 08:46:47;;;;;;;1.00;0.60;;;22.50;33.10;;;;;;5050952;28;20816;-58
2021/04/20 08:49:26;;;;;;;1.88;0.70;;;22.50;33.00;;;;;;5051106;28;20381;-58
2021/04/20 08:52:05;;;;;;;1.20;0.70;;;22.40;33.00;;;;;;5051265;28;20377;-57
2021/04/20 08:54:49;;;;;;;1.15;0.60;;;22.50;33.00;;;;;;5049935;28;20398;-57
2021/04/20 08:57:27;;;;;;;1.63;0.60;;;22.50;32.90;;;;;;5051041;28;20865;-58
2021/04/20 09:00:14;;;;;;;1.70;0.70;;;22.50;33.10;;;;;;5051178;28;20385;-58
2021/04/20 09:03:07;;;;;;;1.37;0.57;;;22.50;33.00;;;;;;5050853;28;20461;-58
2021/04/20 09:05:48;;;;;;;1.45;0.52;;;22.50;33.00;;;;;;5051038;28;20393;-65
2021/04/20 09:08:29;;;;;;;1.00;0.52;;;22.50;33.00;;;;;;5051042;28;20386;-58
2021/04/20 09:11:01;;;;;;;1.02;0.70;;;22.50;33.00;;;;;;5050517;28;20386;-58
2021/04/20 09:13:31;;;;;;;0.98;0.52;;;22.50;33.00;;;;;;5049660;28;20389;-58
2021/04/20 09:16:06;;;;;;;0.80;0.50;;;22.40;33.00;;;;;;5051005;28;20439;-58
2021/04/20 09:18:38;;;;;;;1.05;0.55;;;22.40;33.00;;;;;;5053391;28;20394;-58
2021/04/20 09:21:13;;;;;;;1.42;0.60;;;22.40;33.00;;;;;;5054491;28;20381;-58
2021/04/20 09:23:54;;;;;;;1.55;0.60;;;22.50;33.00;;;;;;5054680;28;20413;-58
2021/04/20 09:26:46;;;;;;;0.90;0.68;;;22.50;32.90;;;;;;5054415;28;20382;-58
2021/04/20 09:29:25;;;;;;;1.23;0.60;;;22.40;32.90;;;;;;5052407;28;20409;-58
2021/04/20 09:32:05;;;;;;;0.82;0.57;;;22.50;32.90;;;;;;5053035;28;20761;-57
2021/04/20 09:34:35;;;;;;;1.25;0.60;;;22.50;32.90;;;;;;5054419;28;20396;-58
2021/04/20 09:37:03;;;;;;;0.90;0.60;;;22.50;32.90;;;;;;5053976;28;20723;-58
2021/04/20 09:39:34;;;;;;;1.10;0.60;;;22.50;32.90;;;;;;5054049;28;20440;-57
2021/04/20 09:42:01;;;;;;;1.10;0.50;;;22.50;32.90;;;;;;5053659;28;20468;-57
2021/04/20 09:44:49;;;;;;;1.00;0.50;;;22.50;32.90;;;;;;5054028;28;20416;-58
2021/04/20 09:47:31;;;;;;;1.33;0.65;;;22.50;32.90;;;;;;5053937;28;20433;-58
2021/04/20 09:50:21;;;;;;;1.08;0.60;;;22.50;32.90;;;;;;5054135;28;20393;-58
2021/04/20 09:53:32;;;;;;;0.90;0.50;;;22.50;32.90;;;;;;5053749;28;20374;-58
2021/04/20 09:56:26;;;;;;;0.90;0.50;;;22.50;32.90;;;;;;5035139;28;20389;-58
2021/04/20 09:58:51;;;;;;;0.77;0.40;;;22.50;32.90;;;;;;5035522;28;20390;-58
2021/04/20 10:01:36;;;;;;;0.90;0.60;;;22.50;32.90;;;;;;5053958;28;20394;-58
2021/04/20 10:04:09;;;;;;;0.90;0.40;;;22.50;32.90;;;;;;5053775;28;20447;-58
2021/04/20 10:06:52;;;;;;;0.90;0.60;;;22.50;32.90;;;;;;5053762;28;20385;-59
2021/04/20 10:09:34;;;;;;;1.20;0.68;;;22.40;32.90;;;;;;5053751;28;20385;-58
2021/04/20 10:12:19;;;;;;;1.05;0.75;;;22.40;32.90;;;;;;5053792;28;20447;-58
2021/04/20 10:14:59;;;;;;;1.10;0.55;;;22.40;32.90;;;;;;5053284;28;20412;-58
2021/04/20 10:17:41;;;;;;;1.30;0.57;;;22.50;32.80;;;;;;5052344;28;20390;-67
2021/04/20 10:20:22;;;;;;;0.85;0.60;;;22.50;32.90;;;;;;5053679;28;20393;-58
2021/04/20 10:23:09;;;;;;;0.93;0.60;;;22.50;32.80;;;;;;5053182;28;20382;-58
2021/04/20 10:25:45;;;;;;;1.40;0.70;;;22.50;32.80;;;;;;5053283;28;20761;-58
2021/04/20 10:28:39;;;;;;;1.37;0.60;;;22.50;32.80;;;;;;5052182;28;20474;-58
2021/04/20 10:31:17;;;;;;;0.95;0.60;;;22.60;32.80;;;;;;5052782;28;20402;-58
2021/04/20 10:33:48;;;;;;;0.93;0.60;;;22.60;32.80;;;;;;5053467;28;20381;-58
2021/04/20 10:36:15;;;;;;;1.10;0.70;;;22.60;32.70;;;;;;5053254;28;20935;-58
2021/04/20 10:38:41;;;;;;;1.48;0.90;;;22.60;32.70;;;;;;5053154;28;20428;-58
2021/04/20 10:41:40;;;;;;;1.20;0.70;;;22.60;32.70;;;;;;5052209;28;20417;-59
2021/04/20 10:44:14;;;;;;;1.58;0.90;;;22.60;32.60;;;;;;5030334;28;20441;-59
2021/04/20 10:46:41;;;;;;;1.40;0.80;;;22.60;32.70;;;;;;5052764;28;20769;-60
2021/04/20 10:49:08;;;;;;;1.17;0.82;;;22.60;32.60;;;;;;5052772;28;20389;-58
2021/04/20 10:51:37;;;;;;;1.40;1.00;;;22.60;32.60;;;;;;5053215;28;20442;-59
2021/04/20 10:54:06;;;;;;;1.20;0.80;;;22.60;32.70;;;;;;5052939;28;20439;-58
2021/04/20 10:56:33;;;;;;;1.38;0.90;;;22.60;32.60;;;;;;5052067;28;20423;-58
2021/04/20 10:59:04;;;;;;;1.42;0.90;;;22.60;32.60;;;;;;5052425;28;20389;-58
2021/04/20 11:01:31;;;;;;;1.30;0.80;;;22.60;32.60;;;;;;5052833;28;20390;-59
2021/04/20 11:04:00;;;;;;;1.23;0.88;;;22.60;32.70;;;;;;5052947;28;20417;-58
2021/04/20 11:07:03;;;;;;;1.23;0.80;;;22.70;32.70;;;;;;5052742;28;20738;-58
2021/04/20 11:09:33;;;;;;;1.98;1.08;;;22.60;32.60;;;;;;5052430;28;20393;-58
2021/04/20 11:12:11;;;;;;;1.50;1.00;;;22.70;32.60;;;;;;5052128;28;20939;-59
2021/04/20 11:14:46;;;;;;;1.30;0.85;;;22.60;32.50;;;;;;5052306;28;20396;-58
2021/04/20 11:17:24;;;;;;;1.50;1.00;;;22.70;32.60;;;;;;5052234;28;20402;-58
2021/04/20 11:19:57;;;;;;;1.55;0.95;;;22.70;32.60;;;;;;5052444;28;20377;-58
2021/04/20 11:22:25;;;;;;;1.10;0.80;;;22.70;32.60;;;;;;5052305;28;20389;-58
2021/04/20 11:24:57;;;;;;;1.83;1.20;;;22.70;32.60;;;;;;5051610;28;20467;-58
2021/04/20 11:27:29;;;;;;;1.98;1.02;;;22.70;32.50;;;;;;5051969;28;20388;-58
2021/04/20 11:30:02;;;;;;;2.00;1.20;;;22.70;32.50;;;;;;5052281;28;20392;-58
2021/04/20 11:32:29;;;;;;;3.15;1.83;;;22.70;32.50;;;;;;5052118;28;20382;-58
2021/04/20 11:34:57;;;;;;;6.97;3.10;;;22.70;32.70;;;;;;5051638;28;20404;-60
2021/04/20 11:37:24;;;;;;;7.07;3.20;;;22.60;34.50;;;;;;5051974;28;20389;-60
2021/04/20 11:40:07;;;;;;;9.23;2.90;;;22.60;34.50;;;;;;5052052;28;20468;-67
2021/04/20 11:42:42;;;;;;;5.95;2.85;;;22.60;34.20;;;;;;5052105;28;20374;-66
2021/04/20 11:45:26;;;;;;;4.82;2.33;;;22.70;33.90;;;;;;5051742;28;20414;-67
2021/04/20 11:47:58;;;;;;;4.80;2.30;;;22.70;33.50;;;;;;5051940;28;20599;-59
2021/04/20 11:50:27;;;;;;;4.25;2.10;;;22.70;33.50;;;;;;5051634;28;20379;-59
2021/04/20 11:53:02;;;;;;;4.78;2.28;;;22.80;34.10;;;;;;5051326;28;20492;-58
2021/04/20 11:55:31;;;;;;;6.05;2.92;;;22.80;34.70;;;;;;5051693;28;20808;-67
2021/04/20 11:58:05;;;;;;;4.95;2.60;;;22.80;34.30;;;;;;5051714;28;20385;-65
2021/04/20 12:00:32;;;;;;;4.18;2.22;;;22.90;33.70;;;;;;5051672;28;20389;-58
2021/04/20 12:03:11;;;;;;;4.32;2.38;;;22.90;33.50;;;;;;5049849;28;20402;-58
2021/04/20 12:05:39;;;;;;;3.40;2.17;;;22.90;33.30;;;;;;5051623;28;20908;-58
2021/04/20 12:08:09;;;;;;;3.60;2.00;;;22.90;33.40;;;;;;5051590;28;20419;-58
2021/04/20 12:10:35;;;;;;;2.97;2.00;;;23.00;33.60;;;;;;5051628;28;20476;-58
2021/04/20 12:13:01;;;;;;;4.47;2.00;;;23.00;33.20;;;;;;5050964;28;20377;-58
2021/04/20 12:15:29;;;;;;;3.38;2.00;;;23.00;33.20;;;;;;5051325;28;20404;-58
2021/04/20 12:17:55;;;;;;;5.65;2.30;;;23.20;40.10;;;;;;5051431;28;20912;-67
2021/04/20 12:20:25;;;;;;;5.57;2.60;;;23.50;36.70;;;;;;5051543;28;20389;-68
2021/04/20 12:22:54;;;;;;;8.80;2.67;;;23.60;36.50;;;;;;5051023;28;20386;-66
2021/04/20 12:25:21;;;;;;;19.05;3.10;;;23.70;36.80;;;;;;5051067;28;20416;-67
2021/04/20 12:28:02;;;;;;;7.82;2.60;;;23.80;37.20;;;;;;5050574;28;20754;-63
2021/04/20 12:30:29;;;;;;;10.45;2.50;;;23.80;36.70;;;;;;5051098;28;20400;-66
2021/04/20 12:32:57;;;;;;;6.82;2.15;;;23.80;36.80;;;;;;5050691;28;20382;-67
2021/04/20 12:35:29;;;;;;;7.85;2.17;;;23.80;36.60;;;;;;5051183;28;20429;-67
2021/04/20 12:37:58;;;;;;;10.90;2.97;;;23.80;36.30;;;;;;5051275;28;20476;-67
2021/04/20 12:40:24;;;;;;;6.32;2.28;;;23.90;36.50;;;;;;5050992;28;20522;-67
2021/04/20 12:42:57;;;;;;;5.93;2.30;;;23.80;36.40;;;;;;5049538;28;20385;-58
2021/04/20 12:45:27;;;;;;;6.65;2.20;;;23.80;36.40;;;;;;5050914;28;20393;-58
2021/04/20 12:47:55;;;;;;;6.80;2.30;;;23.80;36.20;;;;;;5049857;28;20386;-58
2021/04/20 12:50:27;;;;;;;7.00;2.22;;;23.80;36.60;;;;;;5051041;28;20432;-58
2021/04/20 12:52:57;;;;;;;5.15;2.30;;;23.80;36.80;;;;;;5052071;28;20401;-58
2021/04/20 12:55:25;;;;;;;6.38;2.30;;;23.70;36.90;;;;;;5054960;28;20397;-58
2021/04/20 12:57:53;;;;;;;5.07;1.90;;;23.70;36.90;;;;;;5055049;28;20381;-58
2021/04/20 13:00:27;;;;;;;5.95;2.20;;;23.70;37.00;;;;;;5054860;28;20755;-57
2021/04/20 13:02:55;;;;;;;3.28;2.08;;;23.70;36.90;;;;;;5054479;28;20377;-58
2021/04/20 13:05:26;;;;;;;4.95;2.25;;;23.70;36.80;;;;;;5054712;28;20808;-58
2021/04/20 13:07:53;;;;;;;5.00;2.05;;;23.60;36.80;;;;;;5055170;28;20385;-58
2021/04/20 13:10:20;;;;;;;5.57;2.07;;;23.60;36.90;;;;;;5054865;28;20392;-59